Estación de Olivar Alto

Ultimos registro cada 15 minutos 62
Estación Fecha / Hora Temperatura Humedad Lluvia Velocidad Dirección Radiación Presion
62 Olivar Alto 08-05-2026 15:15 18,8 47 0 0,9 238 376 1019,8
61 Olivar Alto 08-05-2026 15:00 18,5 46 0 0,9 260 411 1019,8
60 Olivar Alto 08-05-2026 14:45 18,4 45 0 0,9 242 441 1019,7
59 Olivar Alto 08-05-2026 14:30 18,2 45 0 1,3 272 469 1019,9
58 Olivar Alto 08-05-2026 14:15 18,2 46 0 2,2 220 490 1020,3
57 Olivar Alto 08-05-2026 14:00 17,8 46 0 0,9 245 512 1020,7
56 Olivar Alto 08-05-2026 13:45 17,7 45 0 0,4 184 529 1020,9
55 Olivar Alto 08-05-2026 13:30 17,1 46 0 0 200 541 1021,2
54 Olivar Alto 08-05-2026 13:15 17 46 0 1,3 157 555 1021,4
53 Olivar Alto 08-05-2026 13:00 16,4 56 0 0,9 256 559 1021,5
52 Olivar Alto 08-05-2026 12:45 16 63 0 0 292 559 1021,6
51 Olivar Alto 08-05-2026 12:30 15,6 64 0 2,7 236 561 1021,8
50 Olivar Alto 08-05-2026 12:15 15,2 66 0 1,8 224 557 1022,2
49 Olivar Alto 08-05-2026 12:00 14,4 71 0 0,9 247 554 1022,1
48 Olivar Alto 08-05-2026 11:45 14,1 73 0 0,9 264 541 1022,1
47 Olivar Alto 08-05-2026 11:30 14 74 0 0,4 240 529 1022,2
46 Olivar Alto 08-05-2026 11:15 13,6 76 0 0,9 214 512 1022,5
45 Olivar Alto 08-05-2026 11:00 12,9 78 0 0 249 494 1022,6
44 Olivar Alto 08-05-2026 10:45 12,4 78 0 0,4 253 469 1022,7
43 Olivar Alto 08-05-2026 10:30 11,9 81 0 0,9 227 443 1023
42 Olivar Alto 08-05-2026 10:15 11,2 84 0 1,3 265 418 1022,8
41 Olivar Alto 08-05-2026 10:00 10,1 84 0 0 302 381 1023
40 Olivar Alto 08-05-2026 09:45 9,3 89 0 0 11 339 1023,3
39 Olivar Alto 08-05-2026 09:30 8,2 97 0 0 325 302 1022,9
38 Olivar Alto 08-05-2026 09:15 7,2 97 0 0,9 13 169 1023
37 Olivar Alto 08-05-2026 09:00 6 97 0 0 324 30 1023,2
36 Olivar Alto 08-05-2026 08:45 5,3 97 0 0 352 23 1023,1
35 Olivar Alto 08-05-2026 08:30 4,2 97 0 0 346 23 1023,4
34 Olivar Alto 08-05-2026 08:15 2,5 96 0 0 203 19 1023,2
33 Olivar Alto 08-05-2026 08:00 2,2 96 0 0 203 16 1023,1
32 Olivar Alto 08-05-2026 07:45 1,8 95 0 0 203 11 1023,2
31 Olivar Alto 08-05-2026 07:30 2,3 96 0 0 204 5 1023,2
30 Olivar Alto 08-05-2026 07:15 1,9 95 0 0 204 0 1023,4
29 Olivar Alto 08-05-2026 07:00 1,9 94 0 0 204 0 1023,5
28 Olivar Alto 08-05-2026 06:45 2,4 94 0 0 202 0 1023,9
27 Olivar Alto 08-05-2026 06:30 2,9 95 0 0 202 0 1023,9
26 Olivar Alto 08-05-2026 06:15 2,9 95 0 0 202 0 1024
25 Olivar Alto 08-05-2026 06:00 3,2 95 0 0 202 0 1024
24 Olivar Alto 08-05-2026 05:45 3,5 95 0 0 202 0 1023,5
23 Olivar Alto 08-05-2026 05:30 3,6 95 0 0 201 0 1023,5
22 Olivar Alto 08-05-2026 05:15 3,2 94 0 0 203 0 1023,4
21 Olivar Alto 08-05-2026 05:00 3,4 93 0 0 203 0 1023,4
20 Olivar Alto 08-05-2026 04:45 3,8 94 0 0 203 0 1023,2
19 Olivar Alto 08-05-2026 04:30 4 95 0 0 203 0 1023,3
18 Olivar Alto 08-05-2026 04:15 3,9 94 0 0 203 0 1023
17 Olivar Alto 08-05-2026 04:00 4,1 94 0 0 203 0 1023
16 Olivar Alto 08-05-2026 03:45 4,2 93 0 0 203 0 1023,3
15 Olivar Alto 08-05-2026 03:30 4,3 93 0 0 203 0 1023,7
14 Olivar Alto 08-05-2026 03:15 4,5 94 0 0 203 0 1023,7
13 Olivar Alto 08-05-2026 03:00 4,3 92 0 0 203 0 1023,7
12 Olivar Alto 08-05-2026 02:45 5,1 91 0 0 203 0 1024
11 Olivar Alto 08-05-2026 02:30 5,8 91 0 0 203 0 1024,1
10 Olivar Alto 08-05-2026 02:15 6,1 91 0 0 203 0 1024,1
9 Olivar Alto 08-05-2026 02:00 6,3 91 0 0 203 0 1024,1
8 Olivar Alto 08-05-2026 01:45 6,8 90 0 0 203 0 1024,3
7 Olivar Alto 08-05-2026 01:30 6,7 92 0 0 237 0 1024,4
6 Olivar Alto 08-05-2026 01:15 6,8 91 0 0 259 0 1024,9
5 Olivar Alto 08-05-2026 01:00 6,9 91 0 0 259 0 1024,6
4 Olivar Alto 08-05-2026 00:45 7,2 90 0 0 259 0 1024,6
3 Olivar Alto 08-05-2026 00:30 7,4 90 0 0 259 0 1025,1
2 Olivar Alto 08-05-2026 00:15 7,4 90 0 0 259 0 1024,9
1 Olivar Alto 08-05-2026 00:00 7,6 90 0 0 259 0 1024,9